New Carlisle, IN

10:02 AM EST on January 26, 2015 (GMT -0500)
Bendix Woods County Park | Change Station
CLOSE
Current Station
Personal Weather Station
Location: New Carlisle, IN
Elevation: 835 ft
Nearby Weather Stations

Elev 835 ft 41.66 °N, 86.51 °W | Updated 5 seconds ago

Partly Cloudy
Partly Cloudy
14.3 °F
Feels Like 14 °F
N
0.0
Wind Variable Wind from NW
Gusts 2.0 mph

Today
High -- | Low -- °F
--% Chance of Precip.
Yesterday
High -- | Low -- °F
Precip. -- in
8:03 AM 5:53 PM
Waxing Crescent, 44% visible
Pressure 29.99 in
Visibility 10.0 miles
Clouds Clear
Windchill 14 °F
Dew Point 10 °F
Humidity 81%
Rainfall 0.00 in
Snow Depth Not available.
UV 1 out of 12
Pollen .10 out of 12
Air Quality Not available.
Flu Activity Not available.
METAR KSBN 261454Z 10003KT 10SM CLR M09/M12 A2995 RMK AO2 SLP156 I3000 T10941122 58004

More Conditions Fewer Conditions

Pressure 29.99 in
Visibility 10.0 miles
Clouds Clear
Windchill 14 °F
Dew Point 10 °F
Humidity 81%
Rainfall 0.00 in
Snow Depth Not available.
UV 1 out of 12
Pollen .10 out of 12
Air Quality Not available.
Flu Activity Not available.
METAR KSBN 261454Z 10003KT 10SM CLR M09/M12 A2995 RMK AO2 SLP156 I3000 T10941122 58004

More Conditions Fewer Conditions

10-Day Weather Forecast

Almanac

Astronomy

Jan. 26, 2015 Rise Set
Actual Time
Civil Twilight
Nautical Twilight
Astronomical Twilight
Moon
Length of Visible Light
Length of Day
Tomorrow will be .
, % of the Moon is Illuminated

Today's Extremes

State Highs State Lows

Community

WunderPhotos

Upload Photos

1,790,232 photos uploaded!

WunderBlogs® & News

Nearby

Air Quality

  Air Quality AQ Index Pollutant
Not available.

Snow Depth

Station Depth Elevation

Earthquake Activity

City Distance Mag. Time & Date
Minimum magnitude displayed is 2.5.

Coastal Water Temperatures

Place Temperature

Nearby Weather Stations